sensor_id;sensor_type;location;lat;lon;timestamp;pressure;altitude;pressure_sealevel;temperature;humidity
68634;BME280;55625;47.072;22.192;2023-06-26T00:01:47;99537.72;;;15.96;100.00
68634;BME280;55625;47.072;22.192;2023-06-26T00:04:13;99529.34;;;15.92;100.00
68634;BME280;55625;47.072;22.192;2023-06-26T00:06:40;99534.66;;;15.84;100.00
68634;BME280;55625;47.072;22.192;2023-06-26T00:09:07;99537.22;;;15.82;100.00
68634;BME280;55625;47.072;22.192;2023-06-26T00:11:33;99531.69;;;15.79;100.00
68634;BME280;55625;47.072;22.192;2023-06-26T00:14:02;99538.59;;;15.72;100.00
68634;BME280;55625;47.072;22.192;2023-06-26T00:16:28;99539.59;;;15.69;100.00
68634;BME280;55625;47.072;22.192;2023-06-26T00:18:54;99544.03;;;15.70;100.00
68634;BME280;55625;47.072;22.192;2023-06-26T00:21:19;99538.81;;;15.69;100.00
68634;BME280;55625;47.072;22.192;2023-06-26T00:23:46;99545.03;;;15.67;100.00
68634;BME280;55625;47.072;22.192;2023-06-26T00:26:12;99542.94;;;15.68;100.00
68634;BME280;55625;47.072;22.192;2023-06-26T00:28:38;99548.69;;;15.68;100.00
68634;BME280;55625;47.072;22.192;2023-06-26T00:31:05;99543.25;;;15.70;100.00
68634;BME280;55625;47.072;22.192;2023-06-26T00:33:30;99547.88;;;15.67;100.00
68634;BME280;55625;47.072;22.192;2023-06-26T00:35:56;99539.22;;;15.62;100.00
68634;BME280;55625;47.072;22.192;2023-06-26T00:38:22;99550.50;;;15.56;100.00
68634;BME280;55625;47.072;22.192;2023-06-26T00:40:48;99546.56;;;15.53;100.00
68634;BME280;55625;47.072;22.192;2023-06-26T00:43:15;99542.13;;;15.52;100.00
68634;BME280;55625;47.072;22.192;2023-06-26T00:45:40;99540.03;;;15.53;100.00
68634;BME280;55625;47.072;22.192;2023-06-26T00:48:06;99539.56;;;15.54;100.00
68634;BME280;55625;47.072;22.192;2023-06-26T00:50:32;99531.75;;;15.55;100.00
68634;BME280;55625;47.072;22.192;2023-06-26T00:52:58;99531.75;;;15.55;100.00
68634;BME280;55625;47.072;22.192;2023-06-26T00:55:27;99540.34;;;15.55;100.00
68634;BME280;55625;47.072;22.192;2023-06-26T00:57:54;99537.19;;;15.53;100.00
68634;BME280;55625;47.072;22.192;2023-06-26T01:00:20;99536.28;;;15.47;100.00
68634;BME280;55625;47.072;22.192;2023-06-26T01:02:46;99537.69;;;15.37;100.00
68634;BME280;55625;47.072;22.192;2023-06-26T01:05:13;99533.94;;;15.31;100.00
68634;BME280;55625;47.072;22.192;2023-06-26T01:07:50;99527.59;;;15.27;100.00
68634;BME280;55625;47.072;22.192;2023-06-26T01:10:16;99527.28;;;15.25;100.00
68634;BME280;55625;47.072;22.192;2023-06-26T01:12:43;99516.84;;;15.21;100.00
68634;BME280;55625;47.072;22.192;2023-06-26T01:15:09;99522.25;;;15.19;100.00
68634;BME280;55625;47.072;22.192;2023-06-26T01:17:37;99525.13;;;15.19;100.00
68634;BME280;55625;47.072;22.192;2023-06-26T01:20:06;99511.31;;;15.18;100.00
68634;BME280;55625;47.072;22.192;2023-06-26T01:23:07;99510.53;;;15.17;100.00
68634;BME280;55625;47.072;22.192;2023-06-26T01:26:33;99512.50;;;15.11;100.00
68634;BME280;55625;47.072;22.192;2023-06-26T01:28:42;99513.28;;;15.12;100.00
68634;BME280;55625;47.072;22.192;2023-06-26T01:31:10;99518.22;;;15.11;100.00
68634;BME280;55625;47.072;22.192;2023-06-26T01:33:36;99518.22;;;15.11;100.00
68634;BME280;55625;47.072;22.192;2023-06-26T01:36:04;99514.88;;;15.13;100.00
68634;BME280;55625;47.072;22.192;2023-06-26T01:38:29;99513.28;;;15.12;100.00
68634;BME280;55625;47.072;22.192;2023-06-26T01:40:55;99515.25;;;15.06;100.00
68634;BME280;55625;47.072;22.192;2023-06-26T01:47:00;99516.72;;;15.01;100.00
68634;BME280;55625;47.072;22.192;2023-06-26T01:49:43;99513.91;;;14.92;100.00
68634;BME280;55625;47.072;22.192;2023-06-26T01:52:46;99503.97;;;14.87;100.00
68634;BME280;55625;47.072;22.192;2023-06-26T01:55:41;99500.81;;;14.85;100.00
68634;BME280;55625;47.072;22.192;2023-06-26T01:58:10;99498.75;;;14.86;100.00
68634;BME280;55625;47.072;22.192;2023-06-26T02:00:37;99502.38;;;14.86;100.00
68634;BME280;55625;47.072;22.192;2023-06-26T02:03:03;99520.31;;;14.87;100.00
68634;BME280;55625;47.072;22.192;2023-06-26T02:05:30;99509.09;;;14.83;100.00
68634;BME280;55625;47.072;22.192;2023-06-26T02:07:56;99503.56;;;14.80;100.00
68634;BME280;55625;47.072;22.192;2023-06-26T02:10:22;99511.34;;;14.79;100.00
68634;BME280;55625;47.072;22.192;2023-06-26T02:12:48;99517.34;;;14.81;100.00
68634;BME280;55625;47.072;22.192;2023-06-26T02:15:14;99513.22;;;14.82;100.00
68634;BME280;55625;47.072;22.192;2023-06-26T02:17:39;99513.09;;;14.77;100.00
68634;BME280;55625;47.072;22.192;2023-06-26T02:20:06;99508.38;;;14.74;100.00
68634;BME280;55625;47.072;22.192;2023-06-26T02:22:33;99512.81;;;14.75;100.00
68634;BME280;55625;47.072;22.192;2023-06-26T02:24:59;99502.47;;;14.77;100.00
68634;BME280;55625;47.072;22.192;2023-06-26T02:27:25;99509.56;;;14.82;100.00
68634;BME280;55625;47.072;22.192;2023-06-26T02:29:51;99512.72;;;14.84;100.00
68634;BME280;55625;47.072;22.192;2023-06-26T02:32:17;99512.03;;;14.89;100.00
68634;BME280;55625;47.072;22.192;2023-06-26T02:34:42;99511.56;;;14.90;100.00
68634;BME280;55625;47.072;22.192;2023-06-26T02:37:08;99512.44;;;14.97;100.00
68634;BME280;55625;47.072;22.192;2023-06-26T02:39:34;99506.75;;;14.97;100.00
68634;BME280;55625;47.072;22.192;2023-06-26T02:42:00;99518.00;;;15.00;100.00
68634;BME280;55625;47.072;22.192;2023-06-26T02:44:26;99513.53;;;14.99;100.00
68634;BME280;55625;47.072;22.192;2023-06-26T02:46:52;99513.53;;;14.99;100.00
68634;BME280;55625;47.072;22.192;2023-06-26T02:49:18;99514.81;;;14.98;100.00
68634;BME280;55625;47.072;22.192;2023-06-26T02:51:44;99509.78;;;14.93;100.00
68634;BME280;55625;47.072;22.192;2023-06-26T02:54:10;99512.84;;;14.89;100.00
68634;BME280;55625;47.072;22.192;2023-06-26T02:56:35;99514.59;;;14.87;100.00
68634;BME280;55625;47.072;22.192;2023-06-26T02:59:01;99513.03;;;14.86;100.00
68634;BME280;55625;47.072;22.192;2023-06-26T03:01:27;99515.09;;;14.85;100.00
68634;BME280;55625;47.072;22.192;2023-06-26T03:03:54;99525.72;;;14.85;100.00
68634;BME280;55625;47.072;22.192;2023-06-26T03:06:19;99513.81;;;14.86;100.00
68634;BME280;55625;47.072;22.192;2023-06-26T03:08:45;99512.34;;;14.91;100.00
68634;BME280;55625;47.072;22.192;2023-06-26T03:11:11;99509.00;;;14.93;100.00
68634;BME280;55625;47.072;22.192;2023-06-26T03:13:37;99507.72;;;14.94;100.00
68634;BME280;55625;47.072;22.192;2023-06-26T03:16:04;99515.31;;;14.97;100.00
68634;BME280;55625;47.072;22.192;2023-06-26T03:18:30;99511.47;;;15.00;100.00
68634;BME280;55625;47.072;22.192;2023-06-26T03:20:56;99520.88;;;15.00;100.00
68634;BME280;55625;47.072;22.192;2023-06-26T03:23:23;99513.53;;;14.99;100.00
68634;BME280;55625;47.072;22.192;2023-06-26T03:25:50;99519.59;;;15.01;100.00
68634;BME280;55625;47.072;22.192;2023-06-26T03:28:16;99514.47;;;15.05;100.00
68634;BME280;55625;47.072;22.192;2023-06-26T03:30:42;99522.06;;;15.08;100.00
68634;BME280;55625;47.072;22.192;2023-06-26T03:33:08;99524.22;;;15.13;100.00
68634;BME280;55625;47.072;22.192;2023-06-26T03:35:34;99525.13;;;15.19;100.00
68634;BME280;55625;47.072;22.192;2023-06-26T03:38:01;99529.66;;;15.26;100.00
68634;BME280;55625;47.072;22.192;2023-06-26T03:40:27;99532.81;;;15.28;100.00
68634;BME280;55625;47.072;22.192;2023-06-26T03:42:52;99525.16;;;15.34;100.00
68634;BME280;55625;47.072;22.192;2023-06-26T03:45:18;99533.75;;;15.34;100.00
68634;BME280;55625;47.072;22.192;2023-06-26T03:47:45;99538.75;;;15.39;100.00
68634;BME280;55625;47.072;22.192;2023-06-26T03:50:18;99538.75;;;15.39;100.00
68634;BME280;55625;47.072;22.192;2023-06-26T03:52:44;99538.75;;;15.39;100.00
68634;BME280;55625;47.072;22.192;2023-06-26T03:55:10;99545.28;;;15.40;100.00
68634;BME280;55625;47.072;22.192;2023-06-26T03:57:36;99540.16;;;15.44;100.00
68634;BME280;55625;47.072;22.192;2023-06-26T04:00:03;99532.25;;;15.53;100.00
68634;BME280;55625;47.072;22.192;2023-06-26T04:02:36;99542.16;;;15.67;100.00
68634;BME280;55625;47.072;22.192;2023-06-26T04:05:02;99546.00;;;15.79;100.00
68634;BME280;55625;47.072;22.192;2023-06-26T04:07:31;99550.16;;;15.93;100.00
68634;BME280;55625;47.072;22.192;2023-06-26T04:09:58;99553.47;;;16.06;100.00
68634;BME280;55625;47.072;22.192;2023-06-26T04:12:23;99556.31;;;16.21;100.00
68634;BME280;55625;47.072;22.192;2023-06-26T04:14:49;99549.28;;;16.36;100.00
68634;BME280;55625;47.072;22.192;2023-06-26T04:17:15;99552.06;;;16.51;100.00
68634;BME280;55625;47.072;22.192;2023-06-26T04:19:41;99556.00;;;16.68;100.00
68634;BME280;55625;47.072;22.192;2023-06-26T04:22:07;99542.09;;;16.82;100.00
68634;BME280;55625;47.072;22.192;2023-06-26T04:24:32;99561.03;;;16.94;100.00
68634;BME280;55625;47.072;22.192;2023-06-26T04:26:58;99561.84;;;17.15;100.00
68634;BME280;55625;47.072;22.192;2023-06-26T04:29:26;99565.16;;;17.33;100.00
68634;BME280;55625;47.072;22.192;2023-06-26T04:31:53;99559.34;;;17.48;100.00
68634;BME280;55625;47.072;22.192;2023-06-26T04:34:29;99562.69;;;17.67;100.00
68634;BME280;55625;47.072;22.192;2023-06-26T04:37:00;99571.97;;;17.82;100.00
68634;BME280;55625;47.072;22.192;2023-06-26T04:39:29;99571.59;;;18.00;100.00
68634;BME280;55625;47.072;22.192;2023-06-26T04:41:55;99566.25;;;18.14;100.00
68634;BME280;55625;47.072;22.192;2023-06-26T04:44:21;99565.56;;;18.30;100.00
68634;BME280;55625;47.072;22.192;2023-06-26T04:46:47;99565.16;;;18.43;100.00
68634;BME280;55625;47.072;22.192;2023-06-26T04:49:13;99570.22;;;18.59;100.00
68634;BME280;55625;47.072;22.192;2023-06-26T04:51:42;99572.47;;;18.81;98.96
68634;BME280;55625;47.072;22.192;2023-06-26T04:54:09;99560.78;;;18.96;98.24
68634;BME280;55625;47.072;22.192;2023-06-26T04:56:35;99561.91;;;19.09;96.10
68634;BME280;55625;47.072;22.192;2023-06-26T04:59:02;99560.38;;;19.25;95.08
68634;BME280;55625;47.072;22.192;2023-06-26T05:01:29;99565.09;;;19.28;93.53
68634;BME280;55625;47.072;22.192;2023-06-26T05:03:59;99563.06;;;19.40;93.86
68634;BME280;55625;47.072;22.192;2023-06-26T05:06:24;99558.41;;;19.59;93.69
68634;BME280;55625;47.072;22.192;2023-06-26T05:08:50;99564.22;;;19.81;91.70
68634;BME280;55625;47.072;22.192;2023-06-26T05:11:16;99566.59;;;20.00;89.38
68634;BME280;55625;47.072;22.192;2023-06-26T05:13:42;99567.38;;;20.00;89.37
68634;BME280;55625;47.072;22.192;2023-06-26T05:16:09;99563.97;;;19.96;88.84
68634;BME280;55625;47.072;22.192;2023-06-26T05:18:35;99563.44;;;20.03;88.58
68634;BME280;55625;47.072;22.192;2023-06-26T05:21:03;99563.97;;;20.02;88.25
68634;BME280;55625;47.072;22.192;2023-06-26T05:23:33;99573.13;;;20.17;89.68
68634;BME280;55625;47.072;22.192;2023-06-26T05:26:03;99572.34;;;20.44;89.32
68634;BME280;55625;47.072;22.192;2023-06-26T05:28:30;99568.16;;;20.62;88.00
68634;BME280;55625;47.072;22.192;2023-06-26T05:31:01;99570.97;;;20.79;85.11
68634;BME280;55625;47.072;22.192;2023-06-26T05:33:30;99567.84;;;20.83;84.56
68634;BME280;55625;47.072;22.192;2023-06-26T05:35:57;99564.19;;;20.82;85.66
68634;BME280;55625;47.072;22.192;2023-06-26T05:38:25;99560.66;;;21.06;86.02
68634;BME280;55625;47.072;22.192;2023-06-26T05:40:51;99559.75;;;21.39;86.27
68634;BME280;55625;47.072;22.192;2023-06-26T05:43:17;99561.22;;;21.62;84.41
68634;BME280;55625;47.072;22.192;2023-06-26T05:45:48;99561.47;;;21.64;81.34
68634;BME280;55625;47.072;22.192;2023-06-26T05:48:14;99572.47;;;21.66;81.61
68634;BME280;55625;47.072;22.192;2023-06-26T05:50:41;99567.19;;;21.70;82.12
68634;BME280;55625;47.072;22.192;2023-06-26T05:53:09;99570.53;;;21.85;83.28
68634;BME280;55625;47.072;22.192;2023-06-26T05:55:35;99568.38;;;21.91;80.07
68634;BME280;55625;47.072;22.192;2023-06-26T05:58:02;99561.75;;;21.96;81.63
68634;BME280;55625;47.072;22.192;2023-06-26T06:00:29;99567.06;;;22.28;81.82
68634;BME280;55625;47.072;22.192;2023-06-26T06:02:55;99568.91;;;22.55;80.50
68634;BME280;55625;47.072;22.192;2023-06-26T06:05:22;99563.91;;;22.80;78.75
68634;BME280;55625;47.072;22.192;2023-06-26T06:07:48;99561.16;;;22.93;77.68
68634;BME280;55625;47.072;22.192;2023-06-26T06:10:14;99563.09;;;23.10;76.28
68634;BME280;55625;47.072;22.192;2023-06-26T06:12:40;99564.19;;;23.26;74.95
68634;BME280;55625;47.072;22.192;2023-06-26T06:15:06;99561.06;;;23.23;74.49
68634;BME280;55625;47.072;22.192;2023-06-26T06:17:32;99564.75;;;23.43;76.03
68634;BME280;55625;47.072;22.192;2023-06-26T06:19:58;99562.47;;;23.60;73.58
68634;BME280;55625;47.072;22.192;2023-06-26T06:22:24;99556.72;;;23.73;74.32
68634;BME280;55625;47.072;22.192;2023-06-26T06:24:50;99559.84;;;23.94;74.11
68634;BME280;55625;47.072;22.192;2023-06-26T06:27:17;99560.19;;;24.04;71.99
68634;BME280;55625;47.072;22.192;2023-06-26T06:29:43;99557.31;;;24.04;70.78
68634;BME280;55625;47.072;22.192;2023-06-26T06:32:08;99549.94;;;24.03;72.02
68634;BME280;55625;47.072;22.192;2023-06-26T06:34:34;99554.31;;;24.09;71.34
68634;BME280;55625;47.072;22.192;2023-06-26T06:37:02;99552.19;;;24.10;69.43
68634;BME280;55625;47.072;22.192;2023-06-26T06:39:28;99553.44;;;24.14;68.18
68634;BME280;55625;47.072;22.192;2023-06-26T06:41:54;99547.22;;;24.24;69.44
68634;BME280;55625;47.072;22.192;2023-06-26T06:44:20;99550.31;;;24.44;69.66
68634;BME280;55625;47.072;22.192;2023-06-26T06:46:45;99548.13;;;24.64;69.30
68634;BME280;55625;47.072;22.192;2023-06-26T06:49:11;99556.38;;;24.73;67.51
68634;BME280;55625;47.072;22.192;2023-06-26T06:51:37;99548.81;;;24.83;67.68
68634;BME280;55625;47.072;22.192;2023-06-26T06:54:03;99546.94;;;24.99;67.33
68634;BME280;55625;47.072;22.192;2023-06-26T06:56:29;99541.22;;;25.20;68.00
68634;BME280;55625;47.072;22.192;2023-06-26T06:58:55;99547.00;;;25.33;65.08
68634;BME280;55625;47.072;22.192;2023-06-26T07:01:20;99544.75;;;25.39;66.09
68634;BME280;55625;47.072;22.192;2023-06-26T07:03:46;99549.44;;;25.55;67.35
68634;BME280;55625;47.072;22.192;2023-06-26T07:06:12;99541.56;;;25.77;65.78
68634;BME280;55625;47.072;22.192;2023-06-26T07:08:38;99539.81;;;25.94;65.91
68634;BME280;55625;47.072;22.192;2023-06-26T07:11:04;99547.28;;;26.03;65.46
68634;BME280;55625;47.072;22.192;2023-06-26T07:13:30;99542.25;;;26.24;64.91
68634;BME280;55625;47.072;22.192;2023-06-26T07:15:55;99541.59;;;26.18;60.35
68634;BME280;55625;47.072;22.192;2023-06-26T07:18:21;99549.19;;;26.21;61.81
68634;BME280;55625;47.072;22.192;2023-06-26T07:20:47;99541.66;;;26.39;58.93
68634;BME280;55625;47.072;22.192;2023-06-26T07:23:13;99546.38;;;26.50;60.09
68634;BME280;55625;47.072;22.192;2023-06-26T07:25:39;99541.59;;;26.60;58.87
68634;BME280;55625;47.072;22.192;2023-06-26T07:28:11;99542.31;;;26.74;59.13
68634;BME280;55625;47.072;22.192;2023-06-26T07:30:36;99547.22;;;26.58;56.66
68634;BME280;55625;47.072;22.192;2023-06-26T07:33:02;99543.09;;;26.74;55.83
68634;BME280;55625;47.072;22.192;2023-06-26T07:35:28;99541.88;;;26.70;54.40
68634;BME280;55625;47.072;22.192;2023-06-26T07:37:54;99541.19;;;26.56;52.45
68634;BME280;55625;47.072;22.192;2023-06-26T07:40:20;99536.66;;;26.47;52.08
68634;BME280;55625;47.072;22.192;2023-06-26T07:42:46;99536.88;;;26.49;52.55
68634;BME280;55625;47.072;22.192;2023-06-26T07:45:12;99545.16;;;26.66;57.00
68634;BME280;55625;47.072;22.192;2023-06-26T07:47:39;99536.84;;;26.70;56.31
68634;BME280;55625;47.072;22.192;2023-06-26T07:50:05;99539.41;;;26.74;54.93
68634;BME280;55625;47.072;22.192;2023-06-26T07:52:31;99543.56;;;27.14;55.95
68634;BME280;55625;47.072;22.192;2023-06-26T07:54:57;99542.91;;;27.37;53.21
68634;BME280;55625;47.072;22.192;2023-06-26T07:57:23;99545.47;;;27.48;53.63
68634;BME280;55625;47.072;22.192;2023-06-26T07:59:50;99541.59;;;27.53;53.74
68634;BME280;55625;47.072;22.192;2023-06-26T08:02:16;99538.31;;;27.57;52.63
68634;BME280;55625;47.072;22.192;2023-06-26T08:04:43;99546.16;;;27.62;53.31
68634;BME280;55625;47.072;22.192;2023-06-26T08:07:09;99544.00;;;27.62;49.99
68634;BME280;55625;47.072;22.192;2023-06-26T08:09:35;99542.88;;;27.80;52.97
68634;BME280;55625;47.072;22.192;2023-06-26T08:12:01;99545.84;;;27.96;51.02
68634;BME280;55625;47.072;22.192;2023-06-26T08:14:27;99546.03;;;27.90;47.85
68634;BME280;55625;47.072;22.192;2023-06-26T08:16:52;99550.31;;;27.89;50.11
68634;BME280;55625;47.072;22.192;2023-06-26T08:19:19;99550.16;;;28.02;52.44
68634;BME280;55625;47.072;22.192;2023-06-26T08:21:46;99553.53;;;28.37;52.85
68634;BME280;55625;47.072;22.192;2023-06-26T08:24:12;99545.94;;;28.57;50.29
68634;BME280;55625;47.072;22.192;2023-06-26T08:26:47;99554.69;;;28.64;50.74
68634;BME280;55625;47.072;22.192;2023-06-26T08:29:14;99551.19;;;28.73;48.14
68634;BME280;55625;47.072;22.192;2023-06-26T08:31:40;99560.91;;;28.76;48.99
68634;BME280;55625;47.072;22.192;2023-06-26T08:34:07;99548.66;;;28.93;47.13
68634;BME280;55625;47.072;22.192;2023-06-26T08:36:33;99550.22;;;28.94;47.98
68634;BME280;55625;47.072;22.192;2023-06-26T08:38:59;99553.72;;;28.77;47.25
68634;BME280;55625;47.072;22.192;2023-06-26T08:41:25;99555.69;;;28.90;47.78
68634;BME280;55625;47.072;22.192;2023-06-26T08:43:51;99555.09;;;28.99;48.33
68634;BME280;55625;47.072;22.192;2023-06-26T08:46:19;99551.97;;;28.97;48.24
68634;BME280;55625;47.072;22.192;2023-06-26T08:48:49;99539.31;;;28.79;47.94
68634;BME280;55625;47.072;22.192;2023-06-26T08:51:23;99545.94;;;28.64;48.35
68634;BME280;55625;47.072;22.192;2023-06-26T08:54:00;99539.69;;;28.68;47.16
68634;BME280;55625;47.072;22.192;2023-06-26T08:56:46;99551.97;;;28.66;46.12
68634;BME280;55625;47.072;22.192;2023-06-26T08:59:14;99548.66;;;28.70;46.53
68634;BME280;55625;47.072;22.192;2023-06-26T09:01:41;99545.31;;;29.04;48.34
68634;BME280;55625;47.072;22.192;2023-06-26T09:04:07;99548.41;;;29.21;45.35
68634;BME280;55625;47.072;22.192;2023-06-26T09:06:33;99553.22;;;29.42;43.19
68634;BME280;55625;47.072;22.192;2023-06-26T09:08:59;99545.25;;;29.34;43.01
68634;BME280;55625;47.072;22.192;2023-06-26T09:11:25;99549.34;;;29.39;42.35
68634;BME280;55625;47.072;22.192;2023-06-26T09:13:52;99550.91;;;29.40;43.66
68634;BME280;55625;47.072;22.192;2023-06-26T09:16:17;99548.69;;;29.56;44.20
68634;BME280;55625;47.072;22.192;2023-06-26T09:18:45;99542.59;;;29.69;44.77
68634;BME280;55625;47.072;22.192;2023-06-26T09:21:12;99538.56;;;29.57;43.98
68634;BME280;55625;47.072;22.192;2023-06-26T09:23:40;99549.84;;;29.60;44.73
68634;BME280;55625;47.072;22.192;2023-06-26T09:26:07;99545.09;;;29.80;43.03
68634;BME280;55625;47.072;22.192;2023-06-26T09:28:34;99549.56;;;29.81;43.91
68634;BME280;55625;47.072;22.192;2023-06-26T09:31:05;99543.97;;;29.68;44.39
68634;BME280;55625;47.072;22.192;2023-06-26T09:33:36;99541.44;;;29.72;43.56
68634;BME280;55625;47.072;22.192;2023-06-26T09:36:09;99534.94;;;30.14;44.85
68634;BME280;55625;47.072;22.192;2023-06-26T09:38:43;99540.47;;;30.35;42.92
68634;BME280;55625;47.072;22.192;2023-06-26T09:41:09;99537.81;;;30.21;43.04
68634;BME280;55625;47.072;22.192;2023-06-26T09:43:49;99540.47;;;30.35;42.03
68634;BME280;55625;47.072;22.192;2023-06-26T09:46:28;99543.50;;;30.19;41.88
68634;BME280;55625;47.072;22.192;2023-06-26T09:49:03;99546.38;;;30.27;41.09
68634;BME280;55625;47.072;22.192;2023-06-26T09:51:34;99542.44;;;30.32;43.65
68634;BME280;55625;47.072;22.192;2023-06-26T09:54:01;99539.97;;;30.46;43.03
68634;BME280;55625;47.072;22.192;2023-06-26T09:56:28;99541.28;;;30.52;42.54
68634;BME280;55625;47.072;22.192;2023-06-26T09:59:03;99540.69;;;30.29;42.20
68634;BME280;55625;47.072;22.192;2023-06-26T10:01:31;99538.47;;;30.12;41.06
68634;BME280;55625;47.072;22.192;2023-06-26T10:03:58;99533.06;;;30.34;43.74
68634;BME280;55625;47.072;22.192;2023-06-26T10:06:30;99542.66;;;30.51;43.12
68634;BME280;55625;47.072;22.192;2023-06-26T10:09:00;99545.78;;;30.78;41.64
68634;BME280;55625;47.072;22.192;2023-06-26T10:11:37;99537.00;;;30.78;39.78
68634;BME280;55625;47.072;22.192;2023-06-26T10:14:07;99544.72;;;30.41;42.74
68634;BME280;55625;47.072;22.192;2023-06-26T10:16:35;99535.94;;;29.68;42.84
68634;BME280;55625;47.072;22.192;2023-06-26T10:19:06;99533.16;;;29.30;43.47
68634;BME280;55625;47.072;22.192;2023-06-26T10:21:35;99536.47;;;29.34;44.55
68634;BME280;55625;47.072;22.192;2023-06-26T10:24:06;99530.34;;;29.63;43.45
68634;BME280;55625;47.072;22.192;2023-06-26T10:26:38;99540.25;;;29.67;42.24
68634;BME280;55625;47.072;22.192;2023-06-26T10:29:05;99537.81;;;29.49;43.86
68634;BME280;55625;47.072;22.192;2023-06-26T10:31:32;99543.88;;;29.35;42.16
68634;BME280;55625;47.072;22.192;2023-06-26T10:34:00;99531.84;;;29.24;44.47
68634;BME280;55625;47.072;22.192;2023-06-26T10:36:31;99541.06;;;28.44;44.15
68634;BME280;55625;47.072;22.192;2023-06-26T10:39:05;99540.69;;;28.25;46.23
68634;BME280;55625;47.072;22.192;2023-06-26T10:41:37;99536.16;;;28.16;47.02
68634;BME280;55625;47.072;22.192;2023-06-26T10:44:12;99538.66;;;28.04;46.50
68634;BME280;55625;47.072;22.192;2023-06-26T10:46:55;99533.50;;;28.56;47.59
68634;BME280;55625;47.072;22.192;2023-06-26T10:49:29;99536.16;;;29.15;45.17
68634;BME280;55625;47.072;22.192;2023-06-26T10:51:55;99526.25;;;29.58;44.56
68634;BME280;55625;47.072;22.192;2023-06-26T10:54:30;99535.84;;;29.91;44.57
68634;BME280;55625;47.072;22.192;2023-06-26T10:56:56;99527.22;;;30.01;40.21
68634;BME280;55625;47.072;22.192;2023-06-26T10:59:25;99513.75;;;30.06;41.34
68634;BME280;55625;47.072;22.192;2023-06-26T11:02:01;99521.16;;;29.99;40.87
68634;BME280;55625;47.072;22.192;2023-06-26T11:04:47;99515.00;;;30.20;39.92
68634;BME280;55625;47.072;22.192;2023-06-26T11:07:26;99512.56;;;30.01;42.36
68634;BME280;55625;47.072;22.192;2023-06-26T11:15:15;99507.19;;;28.71;39.34
68634;BME280;55625;47.072;22.192;2023-06-26T11:17:42;99502.34;;;28.36;41.64
68634;BME280;55625;47.072;22.192;2023-06-26T11:20:14;99512.47;;;28.35;43.39
68634;BME280;55625;47.072;22.192;2023-06-26T11:22:42;99510.28;;;28.81;45.47
68634;BME280;55625;47.072;22.192;2023-06-26T11:25:10;99512.88;;;29.48;43.97
68634;BME280;55625;47.072;22.192;2023-06-26T11:27:43;99506.50;;;29.74;42.88
68634;BME280;55625;47.072;22.192;2023-06-26T11:30:21;99503.28;;;29.87;42.70
68634;BME280;55625;47.072;22.192;2023-06-26T11:32:48;99506.19;;;29.55;42.08
68634;BME280;55625;47.072;22.192;2023-06-26T11:35:22;99513.69;;;29.25;43.00
68634;BME280;55625;47.072;22.192;2023-06-26T11:37:56;99512.44;;;28.96;44.76
68634;BME280;55625;47.072;22.192;2023-06-26T11:40:24;99504.44;;;28.73;44.66
68634;BME280;55625;47.072;22.192;2023-06-26T11:42:53;99495.69;;;28.66;46.94
68634;BME280;55625;47.072;22.192;2023-06-26T11:45:20;99500.72;;;28.96;44.11
68634;BME280;55625;47.072;22.192;2023-06-26T11:47:45;99505.00;;;29.10;43.23
68634;BME280;55625;47.072;22.192;2023-06-26T11:50:15;99500.09;;;29.20;41.73
68634;BME280;55625;47.072;22.192;2023-06-26T11:52:45;99498.09;;;29.30;41.76
68634;BME280;55625;47.072;22.192;2023-06-26T11:55:11;99498.44;;;29.34;42.00
68634;BME280;55625;47.072;22.192;2023-06-26T11:57:37;99494.81;;;29.66;42.69
68634;BME280;55625;47.072;22.192;2023-06-26T12:00:14;99486.69;;;29.90;41.99
68634;BME280;55625;47.072;22.192;2023-06-26T12:02:40;99492.84;;;29.69;40.67
68634;BME280;55625;47.072;22.192;2023-06-26T12:05:07;99490.94;;;29.96;43.01
68634;BME280;55625;47.072;22.192;2023-06-26T12:07:33;99490.63;;;29.52;41.54
68634;BME280;55625;47.072;22.192;2023-06-26T12:10:00;99490.53;;;29.20;43.56
68634;BME280;55625;47.072;22.192;2023-06-26T12:12:26;99483.94;;;29.04;42.86
68634;BME280;55625;47.072;22.192;2023-06-26T12:14:52;99493.53;;;28.74;42.28
68634;BME280;55625;47.072;22.192;2023-06-26T12:17:23;99490.28;;;28.55;42.71
68634;BME280;55625;47.072;22.192;2023-06-26T12:19:50;99489.69;;;28.41;45.20
68634;BME280;55625;47.072;22.192;2023-06-26T12:22:18;99489.09;;;28.35;44.92
68634;BME280;55625;47.072;22.192;2023-06-26T12:24:45;99494.34;;;28.21;43.72
68634;BME280;55625;47.072;22.192;2023-06-26T12:27:14;99490.44;;;28.19;45.00
68634;BME280;55625;47.072;22.192;2023-06-26T12:29:51;99501.31;;;28.10;45.30
68634;BME280;55625;47.072;22.192;2023-06-26T12:32:18;99490.88;;;28.30;46.29
68634;BME280;55625;47.072;22.192;2023-06-26T12:34:49;99497.88;;;28.27;43.96
68634;BME280;55625;47.072;22.192;2023-06-26T12:37:15;99491.41;;;28.06;46.08
68634;BME280;55625;47.072;22.192;2023-06-26T12:39:59;99496.84;;;27.94;46.37
68634;BME280;55625;47.072;22.192;2023-06-26T12:42:26;99488.69;;;28.08;47.01
68634;BME280;55625;47.072;22.192;2023-06-26T12:44:53;99487.75;;;28.36;46.03
68634;BME280;55625;47.072;22.192;2023-06-26T12:47:28;99485.41;;;28.57;44.05
68634;BME280;55625;47.072;22.192;2023-06-26T12:49:55;99478.00;;;28.64;44.13
68634;BME280;55625;47.072;22.192;2023-06-26T12:52:21;99483.03;;;28.71;44.34
68634;BME280;55625;47.072;22.192;2023-06-26T12:54:51;99476.81;;;28.90;41.67
68634;BME280;55625;47.072;22.192;2023-06-26T12:57:17;99479.91;;;28.76;43.81
68634;BME280;55625;47.072;22.192;2023-06-26T12:59:43;99476.00;;;28.74;42.06